createdAt,value
2023-04-16T00:01:14.501Z,64.27
2023-04-16T00:03:42.931Z,64.82
2023-04-16T00:06:12.609Z,64.75
2023-04-16T00:08:41.270Z,63.69
2023-04-16T00:11:09.440Z,64.19
2023-04-16T00:13:37.832Z,64.42
2023-04-16T00:16:06.613Z,64.22
2023-04-16T00:18:34.698Z,64.20
2023-04-16T00:21:02.772Z,62.81
2023-04-16T00:23:31.243Z,61.91
2023-04-16T00:26:00.297Z,62.60
2023-04-16T00:28:28.483Z,63.44
2023-04-16T00:30:56.853Z,63.34
2023-04-16T00:33:25.040Z,62.74
2023-04-16T00:35:53.214Z,61.68
2023-04-16T00:38:21.295Z,61.44
2023-04-16T00:40:50.341Z,61.53
2023-04-16T00:43:26.295Z,61.47
2023-04-16T00:45:57.034Z,61.05
2023-04-16T00:48:27.977Z,61.53
2023-04-16T00:50:56.522Z,62.34
2023-04-16T00:53:24.931Z,62.53
2023-04-16T00:55:53.796Z,60.80
2023-04-16T00:58:22.109Z,60.41
2023-04-16T01:00:50.862Z,60.71
2023-04-16T01:03:19.167Z,61.05
2023-04-16T01:05:49.447Z,61.58
2023-04-16T01:08:18.981Z,62.45
2023-04-16T01:10:47.171Z,63.11
2023-04-16T01:13:15.935Z,63.74
2023-04-16T01:15:44.170Z,63.23
2023-04-16T01:18:20.163Z,63.14
2023-04-16T01:20:49.203Z,62.76
2023-04-16T01:23:20.720Z,64.06
2023-04-16T01:25:48.698Z,63.55
2023-04-16T01:28:17.275Z,63.49
2023-04-16T01:30:45.899Z,64.03
2023-04-16T01:33:25.845Z,63.44
2023-04-16T01:35:54.224Z,63.44
2023-04-16T01:38:22.359Z,64.50
2023-04-16T01:40:50.878Z,64.64
2023-04-16T01:43:18.939Z,64.37
2023-04-16T01:45:46.989Z,62.97
2023-04-16T01:48:15.182Z,62.02
2023-04-16T01:50:43.570Z,61.78
2023-04-16T01:53:11.838Z,62.04
2023-04-16T01:55:40.215Z,61.58
2023-04-16T01:58:11.172Z,61.34
2023-04-16T02:00:39.666Z,61.91
2023-04-16T02:03:07.978Z,61.20
2023-04-16T02:05:36.286Z,60.97
2023-04-16T02:08:05.268Z,60.58
2023-04-16T02:10:33.499Z,61.38
2023-04-16T02:13:01.876Z,61.15
2023-04-16T02:15:30.098Z,60.97
2023-04-16T02:17:58.500Z,61.20
2023-04-16T02:20:26.945Z,62.11
2023-04-16T02:22:57.784Z,62.08
2023-04-16T02:25:26.284Z,61.51
2023-04-16T02:27:54.954Z,61.65
2023-04-16T02:30:28.760Z,61.21
2023-04-16T02:32:56.845Z,60.59
2023-04-16T02:35:25.518Z,59.98
2023-04-16T02:37:53.688Z,61.32
2023-04-16T02:40:21.872Z,62.45
2023-04-16T02:42:50.033Z,61.36
2023-04-16T02:45:18.206Z,62.92
2023-04-16T02:47:48.415Z,62.90
2023-04-16T02:50:17.623Z,62.55
2023-04-16T02:52:46.038Z,63.01
2023-04-16T02:55:14.170Z,63.28
2023-04-16T02:57:42.714Z,64.86
2023-04-16T03:00:11.338Z,65.31
2023-04-16T03:02:39.933Z,65.75
2023-04-16T03:05:09.097Z,65.55
2023-04-16T03:07:39.333Z,63.29
2023-04-16T03:10:08.432Z,62.94
2023-04-16T03:12:36.512Z,62.75
2023-04-16T03:15:08.676Z,62.90
2023-04-16T03:17:37.218Z,61.98
2023-04-16T03:20:06.431Z,61.77
2023-04-16T03:22:34.924Z,61.27
2023-04-16T03:25:03.006Z,61.74
2023-04-16T03:27:33.193Z,62.28
2023-04-16T03:30:02.221Z,61.83
2023-04-16T03:32:30.629Z,62.44
2023-04-16T03:34:59.093Z,62.91
2023-04-16T03:37:27.263Z,63.39
2023-04-16T03:39:55.419Z,63.91
2023-04-16T03:42:23.485Z,63.97
2023-04-16T03:44:53.820Z,63.71
2023-04-16T03:47:22.684Z,62.71
2023-04-16T03:49:51.900Z,63.08
2023-04-16T03:52:20.310Z,62.55
2023-04-16T03:54:48.660Z,62.77
2023-04-16T03:57:25.456Z,62.26
2023-04-16T03:59:54.884Z,61.20
2023-04-16T04:02:23.630Z,62.99
2023-04-16T04:04:53.692Z,63.68
2023-04-16T04:07:21.805Z,63.14
2023-04-16T04:09:50.302Z,62.67
2023-04-16T04:12:18.560Z,62.33
2023-04-16T04:14:47.147Z,62.89
2023-04-16T04:17:15.655Z,62.03
2023-04-16T04:19:54.359Z,62.64
2023-04-16T04:22:29.586Z,61.74
2023-04-16T04:24:58.075Z,60.53
2023-04-16T04:27:27.824Z,60.13
2023-04-16T04:29:56.778Z,59.19
2023-04-16T04:32:26.052Z,59.15
2023-04-16T04:34:54.643Z,59.28
2023-04-16T04:37:23.222Z,59.02
2023-04-16T04:39:51.501Z,59.31
2023-04-16T04:42:21.205Z,58.27
2023-04-16T04:44:49.265Z,56.63
2023-04-16T04:47:17.445Z,54.89
2023-04-16T04:49:46.047Z,54.46
2023-04-16T04:52:14.344Z,51.85
2023-04-16T04:54:42.552Z,50.36
2023-04-16T04:57:10.648Z,49.59
2023-04-16T04:59:38.848Z,49.74
2023-04-16T05:02:07.453Z,47.36
2023-04-16T05:04:35.618Z,45.99
2023-04-16T05:07:03.788Z,44.92
2023-04-16T05:09:31.845Z,44.72
2023-04-16T05:12:00.288Z,43.92
2023-04-16T05:14:28.408Z,43.59
2023-04-16T05:16:56.632Z,43.78
2023-04-16T05:19:24.930Z,43.85
2023-04-16T05:21:53.050Z,44.06
2023-04-16T05:24:21.282Z,43.14
2023-04-16T05:26:49.346Z,42.81
2023-04-16T05:29:17.827Z,43.16
2023-04-16T05:31:45.962Z,43.20
2023-04-16T05:34:14.102Z,43.32
2023-04-16T05:36:43.259Z,42.83
2023-04-16T05:39:11.725Z,42.92
2023-04-16T05:41:39.912Z,43.05
2023-04-16T05:44:07.932Z,43.29
2023-04-16T05:46:36.305Z,42.27
2023-04-16T05:49:04.724Z,40.55
2023-04-16T05:51:33.200Z,39.56
2023-04-16T05:54:01.205Z,37.67
2023-04-16T05:56:29.536Z,36.01
2023-04-16T05:58:58.190Z,33.23
2023-04-16T06:01:26.534Z,31.50
2023-04-16T06:03:54.857Z,30.27
2023-04-16T06:06:23.090Z,29.77
2023-04-16T06:08:51.111Z,28.99
2023-04-16T06:11:19.157Z,28.10
2023-04-16T06:13:47.175Z,27.57
2023-04-16T06:16:15.546Z,28.11
2023-04-16T06:18:43.644Z,29.11
2023-04-16T06:21:11.784Z,29.32
2023-04-16T06:23:39.770Z,29.99
2023-04-16T06:26:08.159Z,29.48
2023-04-16T06:28:36.176Z,28.91
2023-04-16T06:31:04.996Z,28.48
2023-04-16T06:33:33.286Z,27.81
2023-04-16T06:36:01.355Z,26.91
2023-04-16T06:38:29.435Z,26.51
2023-04-16T06:40:58.644Z,26.15
2023-04-16T06:43:27.220Z,27.00
2023-04-16T06:45:56.371Z,27.29
2023-04-16T06:48:24.593Z,27.98
2023-04-16T06:50:52.836Z,28.20
2023-04-16T06:53:21.240Z,27.97
2023-04-16T06:55:49.621Z,29.05
2023-04-16T06:58:17.772Z,29.98
2023-04-16T07:00:46.170Z,30.38
2023-04-16T07:03:14.845Z,30.71
2023-04-16T07:05:42.840Z,31.11
2023-04-16T07:08:11.403Z,31.37
2023-04-16T07:10:39.526Z,31.47
2023-04-16T07:13:07.577Z,31.78
2023-04-16T07:15:36.027Z,31.55
2023-04-16T07:18:04.466Z,31.32
2023-04-16T07:20:32.556Z,31.54
2023-04-16T07:23:00.851Z,31.80
2023-04-16T07:25:29.022Z,32.79
2023-04-16T07:27:57.202Z,35.01
2023-04-16T07:30:25.481Z,35.63
2023-04-16T07:32:56.059Z,36.36
2023-04-16T07:35:24.282Z,38.60
2023-04-16T07:37:52.271Z,41.03
2023-04-16T07:40:20.729Z,42.39
2023-04-16T07:42:48.826Z,42.53
2023-04-16T07:45:18.100Z,42.27
2023-04-16T07:47:46.465Z,42.34
2023-04-16T07:50:14.652Z,42.72
2023-04-16T07:52:43.782Z,42.63
2023-04-16T07:55:11.918Z,43.11
2023-04-16T07:57:41.523Z,42.92
2023-04-16T08:00:11.059Z,43.44
2023-04-16T08:02:43.347Z,43.42
2023-04-16T08:05:12.668Z,43.23
2023-04-16T08:07:41.187Z,42.16
2023-04-16T08:10:09.678Z,41.37
2023-04-16T08:12:37.704Z,41.06
2023-04-16T08:15:06.726Z,40.72
2023-04-16T08:17:35.275Z,39.59
2023-04-16T08:20:04.041Z,39.40
2023-04-16T08:22:33.234Z,39.46
2023-04-16T08:25:01.806Z,38.70
2023-04-16T08:27:29.949Z,37.66
2023-04-16T08:29:58.065Z,37.59
2023-04-16T08:32:27.336Z,36.81
2023-04-16T08:34:55.616Z,35.83
2023-04-16T08:37:23.899Z,34.57
2023-04-16T08:39:52.152Z,33.91
2023-04-16T08:42:33.165Z,33.89
2023-04-16T08:45:11.311Z,33.76
2023-04-16T08:47:40.122Z,33.17
2023-04-16T08:50:09.213Z,33.58
2023-04-16T08:52:43.252Z,34.00
2023-04-16T08:55:15.016Z,35.22
2023-04-16T08:58:04.251Z,35.87
2023-04-16T09:00:33.878Z,37.68
2023-04-16T09:03:03.355Z,38.22
2023-04-16T09:05:33.494Z,38.37
2023-04-16T09:08:01.751Z,38.93
2023-04-16T09:10:30.036Z,39.37
2023-04-16T09:12:58.832Z,40.66
2023-04-16T09:15:27.812Z,40.89
2023-04-16T09:17:57.629Z,39.08
2023-04-16T09:20:26.325Z,38.58
2023-04-16T09:22:54.692Z,37.55
2023-04-16T09:25:23.245Z,36.78
2023-04-16T09:27:51.449Z,36.37
2023-04-16T09:30:22.010Z,35.70
2023-04-16T09:32:51.761Z,34.96
2023-04-16T09:35:20.667Z,34.63
2023-04-16T09:37:58.298Z,36.31
2023-04-16T09:40:30.489Z,35.77
2023-04-16T09:43:00.892Z,34.83
2023-04-16T09:45:32.815Z,34.30
2023-04-16T09:48:06.125Z,34.31
2023-04-16T09:50:34.249Z,33.87
2023-04-16T09:53:03.708Z,33.27
2023-04-16T09:55:32.894Z,33.32
2023-04-16T09:58:01.967Z,33.91
2023-04-16T10:00:31.655Z,34.05
2023-04-16T10:03:07.324Z,34.42
2023-04-16T10:05:37.017Z,35.34
2023-04-16T10:08:12.379Z,35.38
2023-04-16T10:10:41.612Z,34.15
2023-04-16T10:13:10.827Z,32.94
2023-04-16T10:15:39.280Z,32.56
2023-04-16T10:18:07.752Z,33.01
2023-04-16T10:20:37.051Z,33.16
2023-04-16T10:23:06.274Z,34.10
2023-04-16T10:25:35.045Z,33.46
2023-04-16T10:28:03.558Z,32.46
2023-04-16T10:30:31.950Z,30.96
2023-04-16T10:33:02.162Z,30.67
2023-04-16T10:35:31.314Z,30.63
2023-04-16T10:38:22.436Z,30.06
2023-04-16T10:40:51.016Z,29.86
2023-04-16T10:43:20.006Z,28.74
2023-04-16T10:45:48.841Z,27.92
2023-04-16T10:48:19.322Z,27.97
2023-04-16T10:50:58.455Z,28.22
2023-04-16T10:53:27.981Z,27.86
2023-04-16T10:55:57.912Z,27.22
2023-04-16T10:58:30.712Z,26.36
2023-04-16T11:01:01.284Z,26.13
2023-04-16T11:03:32.771Z,25.80
2023-04-16T11:06:16.788Z,26.08
2023-04-16T11:11:19.575Z,26.30
2023-04-16T11:13:48.119Z,27.33
2023-04-16T11:16:16.727Z,26.85
2023-04-16T11:18:51.349Z,26.56
2023-04-16T11:21:20.661Z,26.99
2023-04-16T11:23:53.866Z,27.38
2023-04-16T11:26:28.301Z,27.67
2023-04-16T11:28:57.376Z,28.16
2023-04-16T11:31:31.840Z,28.12
2023-04-16T11:34:01.098Z,27.69
2023-04-16T11:36:42.475Z,28.15
2023-04-16T11:39:10.686Z,28.33
2023-04-16T11:41:47.733Z,28.58
2023-04-16T11:44:27.523Z,28.36
2023-04-16T11:46:55.709Z,28.35
2023-04-16T11:49:31.075Z,27.65
2023-04-16T11:51:59.141Z,27.72
2023-04-16T11:54:27.342Z,27.61
2023-04-16T11:56:55.610Z,27.43
2023-04-16T11:59:24.062Z,27.24
2023-04-16T12:01:55.881Z,27.08
2023-04-16T12:04:26.370Z,26.58
2023-04-16T12:07:10.831Z,26.07
2023-04-16T12:09:43.614Z,26.17
2023-04-16T12:12:32.435Z,26.50
2023-04-16T12:15:05.406Z,26.99
2023-04-16T12:17:35.393Z,26.63
2023-04-16T12:20:09.642Z,25.95
2023-04-16T12:22:39.714Z,25.86
2023-04-16T12:25:16.359Z,26.25
2023-04-16T12:27:56.098Z,26.28
2023-04-16T12:30:31.015Z,26.16
2023-04-16T12:33:19.424Z,25.97
2023-04-16T12:35:47.710Z,25.74
2023-04-16T12:38:16.302Z,26.51
2023-04-16T12:40:44.542Z,26.70
2023-04-16T12:43:13.264Z,26.84
2023-04-16T12:45:41.618Z,26.23
2023-04-16T12:48:09.793Z,26.23
2023-04-16T12:50:39.864Z,26.65
2023-04-16T12:53:08.375Z,26.37
2023-04-16T12:55:36.759Z,26.49
2023-04-16T12:58:04.824Z,27.06
2023-04-16T13:00:32.901Z,27.10
2023-04-16T13:03:01.327Z,26.91
2023-04-16T13:05:29.594Z,27.03
2023-04-16T13:07:57.846Z,27.64
2023-04-16T13:10:27.857Z,27.72
2023-04-16T13:12:56.121Z,28.04
2023-04-16T13:15:24.139Z,27.57
2023-04-16T13:17:52.322Z,27.81
2023-04-16T13:20:21.916Z,28.07
2023-04-16T13:22:51.481Z,28.01
2023-04-16T13:25:19.561Z,27.69
2023-04-16T13:27:47.637Z,27.63
2023-04-16T13:30:16.511Z,28.07
2023-04-16T13:32:44.809Z,28.90
2023-04-16T13:35:13.283Z,35.66
2023-04-16T13:37:41.441Z,43.09
2023-04-16T13:40:09.822Z,45.96
2023-04-16T13:42:37.895Z,47.16
2023-04-16T13:45:06.574Z,48.03
2023-04-16T13:47:35.311Z,48.94
2023-04-16T13:50:04.088Z,50.13
2023-04-16T13:52:32.422Z,52.49
2023-04-16T13:55:01.766Z,53.38
2023-04-16T13:57:29.998Z,55.06
2023-04-16T13:59:58.273Z,53.05
2023-04-16T14:02:26.925Z,53.00
2023-04-16T14:04:55.361Z,52.37
2023-04-16T14:07:27.192Z,51.89
2023-04-16T14:09:55.544Z,52.62
2023-04-16T14:12:23.593Z,51.82
2023-04-16T14:14:51.604Z,50.66
2023-04-16T14:17:19.710Z,50.21
2023-04-16T14:19:47.927Z,50.71
2023-04-16T14:22:18.079Z,51.08
2023-04-16T14:24:46.328Z,50.67
2023-04-16T14:27:14.634Z,50.13
2023-04-16T14:29:43.845Z,50.19
2023-04-16T14:32:12.585Z,49.46
2023-04-16T14:34:40.893Z,48.96
2023-04-16T14:37:09.166Z,47.72
2023-04-16T14:39:39.164Z,46.58
2023-04-16T14:42:07.364Z,45.84
2023-04-16T14:44:35.646Z,45.46
2023-04-16T14:47:03.690Z,45.04
2023-04-16T14:49:32.517Z,45.34
2023-04-16T14:52:02.732Z,45.05
2023-04-16T14:54:32.036Z,44.88
2023-04-16T14:57:00.594Z,45.06
2023-04-16T14:59:28.880Z,45.46
2023-04-16T15:01:58.198Z,46.02
2023-04-16T15:04:26.575Z,46.03
2023-04-16T15:06:59.048Z,46.78
2023-04-16T15:09:27.623Z,46.71
2023-04-16T15:11:57.039Z,46.87
2023-04-16T15:14:25.303Z,46.67
2023-04-16T15:16:53.943Z,46.39
2023-04-16T15:19:22.550Z,46.42
2023-04-16T15:21:50.933Z,47.20
2023-04-16T15:24:19.280Z,47.69
2023-04-16T15:26:47.486Z,47.67
2023-04-16T15:29:16.102Z,48.51
2023-04-16T15:31:44.409Z,48.81
2023-04-16T15:34:12.738Z,49.89
2023-04-16T15:36:42.188Z,49.65
2023-04-16T15:39:11.202Z,49.20
2023-04-16T15:41:50.130Z,49.48
2023-04-16T15:44:25.587Z,52.20
2023-04-16T15:46:53.659Z,51.65
2023-04-16T15:49:21.842Z,48.66
2023-04-16T15:51:50.009Z,50.25
2023-04-16T15:54:18.598Z,50.11
2023-04-16T15:56:47.387Z,50.06
2023-04-16T15:59:15.521Z,50.17
2023-04-16T16:01:43.830Z,49.87
2023-04-16T16:04:12.630Z,48.81
2023-04-16T16:06:42.011Z,48.66
2023-04-16T16:09:11.144Z,49.41
2023-04-16T16:11:39.477Z,49.95
2023-04-16T16:14:07.683Z,50.24
2023-04-16T16:16:36.540Z,49.87
2023-04-16T16:19:04.774Z,50.35
2023-04-16T16:21:33.015Z,51.01
2023-04-16T16:24:01.206Z,50.88
2023-04-16T16:26:29.652Z,50.46
2023-04-16T16:28:57.734Z,50.76
2023-04-16T16:31:26.192Z,49.80
2023-04-16T16:33:54.446Z,49.52
2023-04-16T16:36:22.557Z,49.34
2023-04-16T16:38:50.722Z,49.14
2023-04-16T16:41:18.781Z,48.98
2023-04-16T16:43:47.048Z,48.15
2023-04-16T16:46:15.159Z,47.61
2023-04-16T16:48:43.325Z,47.35
2023-04-16T16:51:11.505Z,48.23
2023-04-16T16:53:39.508Z,48.95
2023-04-16T16:56:07.560Z,50.31
2023-04-16T16:58:36.017Z,51.16
2023-04-16T17:01:04.474Z,52.85
2023-04-16T17:03:34.405Z,54.33
2023-04-16T17:06:02.557Z,54.91
2023-04-16T17:08:30.854Z,54.97
2023-04-16T17:11:03.553Z,54.12
2023-04-16T17:13:32.860Z,55.01
2023-04-16T17:16:01.473Z,56.35
2023-04-16T17:18:29.793Z,56.67
2023-04-16T17:20:58.172Z,57.19
2023-04-16T17:23:26.456Z,56.54
2023-04-16T17:25:54.932Z,57.24
2023-04-16T17:28:23.117Z,58.44
2023-04-16T17:30:53.425Z,58.39
2023-04-16T17:33:21.664Z,57.92
2023-04-16T17:35:50.097Z,57.22
2023-04-16T17:38:18.358Z,56.53
2023-04-16T17:40:46.499Z,56.42
2023-04-16T17:43:14.596Z,55.96
2023-04-16T17:45:42.597Z,55.41
2023-04-16T17:48:11.164Z,54.60
2023-04-16T17:50:39.797Z,54.03
2023-04-16T17:53:08.015Z,53.87
2023-04-16T17:55:36.711Z,53.61
2023-04-16T17:58:04.962Z,52.96
2023-04-16T18:00:33.034Z,53.13
2023-04-16T18:03:01.176Z,52.71
2023-04-16T18:05:30.614Z,52.73
2023-04-16T18:07:58.716Z,52.55
2023-04-16T18:10:27.046Z,52.44
2023-04-16T18:12:55.139Z,52.66
2023-04-16T18:15:23.333Z,53.16
2023-04-16T18:17:51.509Z,53.15
2023-04-16T18:20:20.059Z,53.58
2023-04-16T18:22:48.345Z,53.38
2023-04-16T18:25:16.534Z,53.49
2023-04-16T18:27:47.447Z,53.47
2023-04-16T18:30:22.975Z,53.53
2023-04-16T18:33:10.113Z,53.61
2023-04-16T18:35:42.481Z,54.07
2023-04-16T18:38:11.069Z,54.44
2023-04-16T18:40:39.848Z,55.09
2023-04-16T18:43:07.997Z,55.31
2023-04-16T18:45:36.345Z,55.42
2023-04-16T18:48:04.892Z,55.92
2023-04-16T18:50:32.927Z,56.22
2023-04-16T18:53:01.233Z,56.28
2023-04-16T18:55:30.425Z,56.45
2023-04-16T18:57:58.606Z,56.22
2023-04-16T19:00:26.925Z,56.13
2023-04-16T19:05:23.605Z,56.34
2023-04-16T19:07:51.640Z,56.45
2023-04-16T19:10:19.872Z,56.31
2023-04-16T19:12:48.873Z,56.63
2023-04-16T19:15:17.265Z,56.97
2023-04-16T19:17:45.542Z,57.24
2023-04-16T19:20:13.882Z,57.47
2023-04-16T19:22:41.906Z,57.06
2023-04-16T19:25:10.966Z,57.72
2023-04-16T19:27:39.153Z,57.93
2023-04-16T19:30:07.938Z,58.78
2023-04-16T19:32:36.649Z,59.36
2023-04-16T19:35:05.265Z,59.84
2023-04-16T19:37:33.469Z,60.47
2023-04-16T19:40:02.084Z,62.08
2023-04-16T19:42:30.761Z,61.92
2023-04-16T19:44:59.115Z,62.49
2023-04-16T19:47:27.607Z,62.71
2023-04-16T19:49:55.877Z,63.71
2023-04-16T19:52:24.557Z,63.63
2023-04-16T19:54:52.808Z,64.01
2023-04-16T19:57:21.109Z,63.79
2023-04-16T19:59:49.593Z,64.03
2023-04-16T20:02:17.822Z,64.27
2023-04-16T20:04:48.191Z,64.36
2023-04-16T20:07:16.269Z,63.41
2023-04-16T20:09:44.528Z,64.09
2023-04-16T20:12:12.909Z,64.65
2023-04-16T20:14:42.049Z,64.63
2023-04-16T20:17:10.425Z,64.54
2023-04-16T20:19:38.637Z,64.36
2023-04-16T20:22:06.725Z,65.27
2023-04-16T20:24:34.858Z,65.98
2023-04-16T20:27:02.879Z,67.68
2023-04-16T20:29:30.990Z,68.64
2023-04-16T20:31:59.054Z,68.69
2023-04-16T20:34:28.041Z,69.11
2023-04-16T20:36:58.133Z,69.06
2023-04-16T20:39:27.516Z,70.12
2023-04-16T20:41:58.662Z,69.64
2023-04-16T20:44:33.446Z,69.18
2023-04-16T20:47:02.039Z,69.26
2023-04-16T20:49:30.277Z,68.92
2023-04-16T20:51:58.730Z,69.06
2023-04-16T20:54:27.256Z,69.72
2023-04-16T20:56:56.230Z,70.30
2023-04-16T20:59:24.994Z,69.81
2023-04-16T21:01:53.357Z,69.78
2023-04-16T21:04:21.798Z,70.04
2023-04-16T21:06:53.647Z,70.43
2023-04-16T21:09:21.932Z,70.33
2023-04-16T21:11:50.053Z,70.22
2023-04-16T21:14:18.744Z,71.33
2023-04-16T21:16:46.902Z,71.86
2023-04-16T21:19:14.975Z,72.18
2023-04-16T21:21:43.567Z,72.44
2023-04-16T21:24:11.786Z,72.29
2023-04-16T21:26:39.816Z,72.46
2023-04-16T21:29:07.883Z,71.96
2023-04-16T21:31:36.427Z,71.94
2023-04-16T21:34:04.471Z,72.34
2023-04-16T21:36:34.113Z,72.04
2023-04-16T21:39:02.741Z,71.98
2023-04-16T21:41:31.176Z,72.07
2023-04-16T21:43:59.483Z,71.77
2023-04-16T21:46:28.018Z,71.95
2023-04-16T21:48:56.482Z,71.89
2023-04-16T21:51:29.236Z,71.61
2023-04-16T21:53:58.147Z,72.09
2023-04-16T21:56:26.525Z,72.36
2023-04-16T21:58:54.560Z,73.21
2023-04-16T22:01:22.810Z,73.22
2023-04-16T22:03:52.306Z,73.51
2023-04-16T22:06:21.196Z,73.47
2023-04-16T22:08:50.268Z,73.47
2023-04-16T22:11:18.353Z,73.96
2023-04-16T22:13:47.812Z,73.67
2023-04-16T22:16:16.417Z,73.87
2023-04-16T22:18:45.483Z,72.69
2023-04-16T22:21:13.460Z,72.91
2023-04-16T22:23:41.522Z,74.32
2023-04-16T22:26:10.212Z,73.96
2023-04-16T22:28:38.364Z,74.35
2023-04-16T22:31:06.950Z,73.99
2023-04-16T22:33:35.420Z,73.39
2023-04-16T22:36:04.233Z,73.58
2023-04-16T22:38:32.491Z,73.90
2023-04-16T22:41:00.767Z,74.42
2023-04-16T22:43:28.824Z,73.71
2023-04-16T22:46:07.303Z,74.06
2023-04-16T22:48:38.203Z,74.00
2023-04-16T22:51:08.476Z,74.60
2023-04-16T22:53:36.948Z,75.41
2023-04-16T22:56:05.677Z,75.19
2023-04-16T22:58:33.702Z,76.66
2023-04-16T23:01:01.911Z,76.78
2023-04-16T23:03:30.849Z,75.52
2023-04-16T23:05:59.103Z,77.15
2023-04-16T23:08:27.414Z,77.69
2023-04-16T23:10:55.741Z,77.89
2023-04-16T23:13:23.912Z,77.47
2023-04-16T23:15:52.155Z,76.44
2023-04-16T23:18:20.389Z,77.72
2023-04-16T23:20:52.426Z,77.49
2023-04-16T23:23:20.620Z,76.38
2023-04-16T23:25:48.738Z,76.18
2023-04-16T23:28:16.883Z,75.87
2023-04-16T23:30:45.011Z,76.33
2023-04-16T23:33:13.402Z,76.55
2023-04-16T23:35:41.410Z,77.18
2023-04-16T23:38:09.583Z,78.39
2023-04-16T23:40:37.702Z,78.11
2023-04-16T23:43:05.760Z,77.54
2023-04-16T23:45:34.068Z,77.98
2023-04-16T23:48:02.753Z,79.21
2023-04-16T23:50:31.323Z,78.36
2023-04-16T23:52:59.429Z,77.48
2023-04-16T23:55:27.464Z,77.96
2023-04-16T23:57:55.940Z,78.12
